createdAt,value
2017-10-15T00:00:07.350Z,10.20
2017-10-15T00:02:33.991Z,10.68
2017-10-15T00:05:00.605Z,8.15
2017-10-15T00:07:27.226Z,9.70
2017-10-15T00:09:53.861Z,10.43
2017-10-15T00:12:20.472Z,9.52
2017-10-15T00:14:47.103Z,10.73
2017-10-15T00:17:13.723Z,11.27
2017-10-15T00:19:40.339Z,12.65
2017-10-15T00:22:06.967Z,12.73
2017-10-15T00:24:33.635Z,15.52
2017-10-15T00:27:00.245Z,14.93
2017-10-15T00:29:26.878Z,16.17
2017-10-15T00:31:53.498Z,17.58
2017-10-15T00:34:20.211Z,16.75
2017-10-15T00:36:46.830Z,16.95
2017-10-15T00:39:13.442Z,14.55
2017-10-15T00:41:40.074Z,16.80
2017-10-15T00:44:06.692Z,17.35
2017-10-15T00:46:33.302Z,17.02
2017-10-15T00:48:59.930Z,16.75
2017-10-15T00:51:26.548Z,15.60
2017-10-15T00:53:53.175Z,15.73
2017-10-15T00:56:19.803Z,14.87
2017-10-15T00:58:46.459Z,14.45
2017-10-15T01:01:13.090Z,13.45
2017-10-15T01:03:39.715Z,14.10
2017-10-15T01:06:06.342Z,11.90
2017-10-15T01:08:32.995Z,12.02
2017-10-15T01:10:59.606Z,10.73
2017-10-15T01:13:26.233Z,10.55
2017-10-15T01:15:52.866Z,10.52
2017-10-15T01:18:19.503Z,9.93
2017-10-15T01:20:46.115Z,10.80
2017-10-15T01:23:12.767Z,10.52
2017-10-15T01:25:39.378Z,11.35
2017-10-15T01:28:06.016Z,10.27
2017-10-15T01:30:32.738Z,10.88
2017-10-15T01:32:59.356Z,10.50
2017-10-15T01:35:25.990Z,11.18
2017-10-15T01:37:52.602Z,13.02
2017-10-15T01:40:19.220Z,10.45
2017-10-15T01:42:45.851Z,11.55
2017-10-15T01:45:12.458Z,10.50
2017-10-15T01:47:39.104Z,11.25
2017-10-15T01:50:05.753Z,10.90
2017-10-15T01:52:32.430Z,11.05
2017-10-15T01:54:59.042Z,10.15
2017-10-15T01:57:25.666Z,9.82
2017-10-15T01:59:52.269Z,9.75
2017-10-15T02:02:18.890Z,9.88
2017-10-15T02:04:45.504Z,9.85
2017-10-15T02:07:12.117Z,10.75
2017-10-15T02:09:38.747Z,11.68
2017-10-15T02:12:05.367Z,13.85
2017-10-15T02:14:31.974Z,13.35
2017-10-15T02:16:58.602Z,14.60
2017-10-15T02:19:25.214Z,13.30
2017-10-15T02:21:51.909Z,10.70
2017-10-15T02:24:18.562Z,10.25
2017-10-15T02:26:45.170Z,11.50
2017-10-15T02:29:11.821Z,12.40
2017-10-15T02:31:38.442Z,13.02
2017-10-15T02:34:05.054Z,11.93
2017-10-15T02:36:31.667Z,9.57
2017-10-15T02:38:58.374Z,10.60
2017-10-15T02:41:24.983Z,10.27
2017-10-15T02:43:51.596Z,11.57
2017-10-15T02:46:18.218Z,10.35
2017-10-15T02:48:44.830Z,11.27
2017-10-15T02:51:11.451Z,11.40
2017-10-15T02:53:38.078Z,11.12
2017-10-15T02:56:04.695Z,10.75
2017-10-15T02:58:31.370Z,10.40
2017-10-15T03:00:57.999Z,10.90
2017-10-15T03:03:24.662Z,11.88
2017-10-15T03:05:51.299Z,14.65
2017-10-15T03:08:17.928Z,14.43
2017-10-15T03:10:44.639Z,14.82
2017-10-15T03:13:11.250Z,13.55
2017-10-15T03:15:38.204Z,15.32
2017-10-15T03:18:05.152Z,15.35
2017-10-15T03:20:31.825Z,14.02
2017-10-15T03:22:58.449Z,13.57
2017-10-15T03:25:25.063Z,15.35
2017-10-15T03:27:51.887Z,13.43
2017-10-15T03:30:18.614Z,16.08
2017-10-15T03:32:45.284Z,16.85
2017-10-15T03:35:11.990Z,16.98
2017-10-15T03:37:38.706Z,16.20
2017-10-15T03:40:05.620Z,16.33
2017-10-15T03:42:32.567Z,15.60
2017-10-15T03:44:59.268Z,17.02
2017-10-15T03:47:25.879Z,15.27
2017-10-15T03:49:52.489Z,15.02
2017-10-15T03:52:19.343Z,13.85
2017-10-15T03:54:46.376Z,13.10
2017-10-15T03:57:13.230Z,12.02
2017-10-15T03:59:40.018Z,13.05
2017-10-15T04:02:06.838Z,13.95
2017-10-15T04:04:34.187Z,11.98
2017-10-15T04:07:00.868Z,10.93
2017-10-15T04:09:27.745Z,10.45
2017-10-15T04:11:54.390Z,12.13
2017-10-15T04:14:21.014Z,12.48
2017-10-15T04:16:47.639Z,10.00
2017-10-15T04:19:14.536Z,10.80
2017-10-15T04:21:41.315Z,10.52
2017-10-15T04:24:07.934Z,10.35
2017-10-15T04:26:34.730Z,10.73
2017-10-15T04:29:01.574Z,9.77
2017-10-15T04:31:28.420Z,11.12
2017-10-15T04:33:56.554Z,11.48
2017-10-15T04:36:23.847Z,9.50
2017-10-15T04:38:50.630Z,10.43
2017-10-15T04:41:17.270Z,9.23
2017-10-15T04:43:43.887Z,8.93
2017-10-15T04:46:10.566Z,10.10
2017-10-15T04:48:38.143Z,9.57
2017-10-15T04:51:04.847Z,9.65
2017-10-15T04:53:31.492Z,10.00
2017-10-15T04:55:58.116Z,9.10
2017-10-15T04:58:24.728Z,9.20
2017-10-15T05:00:51.338Z,9.52
2017-10-15T05:03:17.967Z,8.85
2017-10-15T05:05:44.574Z,9.27
2017-10-15T05:08:11.179Z,9.82
2017-10-15T05:10:37.804Z,9.27
2017-10-15T05:13:04.414Z,9.35
2017-10-15T05:15:31.043Z,8.80
2017-10-15T05:17:57.650Z,8.70
2017-10-15T05:20:24.268Z,9.73
2017-10-15T05:22:50.886Z,9.73
2017-10-15T05:25:17.493Z,9.23
2017-10-15T05:27:44.106Z,9.43
2017-10-15T05:30:10.730Z,9.15
2017-10-15T05:32:37.339Z,8.70
2017-10-15T05:35:03.950Z,10.93
2017-10-15T05:37:30.578Z,9.77
2017-10-15T05:39:57.187Z,7.55
2017-10-15T05:42:24.328Z,8.40
2017-10-15T05:44:51.022Z,7.95
2017-10-15T05:47:17.639Z,9.20
2017-10-15T05:49:44.261Z,9.13
2017-10-15T05:52:10.893Z,9.27
2017-10-15T05:54:37.585Z,8.80
2017-10-15T05:57:04.218Z,7.85
2017-10-15T05:59:30.846Z,7.68
2017-10-15T06:01:57.454Z,7.75
2017-10-15T06:04:24.059Z,6.95
2017-10-15T06:06:50.687Z,7.03
2017-10-15T06:09:17.290Z,9.32
2017-10-15T06:11:43.921Z,8.77
2017-10-15T06:14:10.535Z,7.50
2017-10-15T06:16:37.159Z,8.10
2017-10-15T06:19:03.778Z,7.28
2017-10-15T06:21:30.391Z,7.05
2017-10-15T06:23:57.003Z,8.35
2017-10-15T06:26:23.954Z,7.87
2017-10-15T06:28:50.585Z,7.90
2017-10-15T06:31:17.183Z,8.07
2017-10-15T06:33:43.807Z,8.57
2017-10-15T06:36:10.411Z,7.65
2017-10-15T06:38:37.011Z,8.13
2017-10-15T06:41:03.642Z,10.35
2017-10-15T06:43:30.253Z,12.75
2017-10-15T06:45:56.862Z,8.98
2017-10-15T06:48:23.495Z,9.80
2017-10-15T06:50:50.111Z,10.38
2017-10-15T06:53:16.723Z,9.20
2017-10-15T06:55:43.370Z,11.10
2017-10-15T06:58:09.982Z,9.30
2017-10-15T07:00:36.596Z,8.27
2017-10-15T07:03:03.232Z,8.02
2017-10-15T07:05:29.854Z,8.07
2017-10-15T07:07:56.490Z,7.90
2017-10-15T07:10:23.235Z,6.70
2017-10-15T07:12:49.865Z,7.75
2017-10-15T07:15:16.509Z,8.27
2017-10-15T07:17:43.149Z,7.78
2017-10-15T07:20:09.803Z,8.50
2017-10-15T07:22:36.427Z,8.52
2017-10-15T07:25:03.125Z,9.05
2017-10-15T07:27:29.746Z,7.62
2017-10-15T07:29:56.376Z,8.15
2017-10-15T07:32:22.983Z,8.18
2017-10-15T07:34:49.687Z,9.27
2017-10-15T07:37:16.313Z,8.98
2017-10-15T07:39:42.963Z,8.98
2017-10-15T07:42:09.598Z,8.13
2017-10-15T07:44:36.213Z,6.93
2017-10-15T07:47:02.882Z,7.87
2017-10-15T07:49:29.515Z,6.82
2017-10-15T07:51:56.142Z,7.20
2017-10-15T07:54:22.742Z,7.12
2017-10-15T07:56:49.343Z,6.43
2017-10-15T07:59:15.996Z,7.25
2017-10-15T08:01:42.603Z,7.00
2017-10-15T08:04:09.218Z,6.97
2017-10-15T08:06:35.875Z,6.78
2017-10-15T08:09:02.491Z,6.82
2017-10-15T08:11:29.108Z,7.12
2017-10-15T08:13:55.786Z,6.90
2017-10-15T08:16:22.420Z,8.35
2017-10-15T08:18:49.061Z,8.38
2017-10-15T08:21:15.700Z,7.82
2017-10-15T08:23:42.303Z,8.30
2017-10-15T08:26:08.906Z,7.45
2017-10-15T08:28:35.526Z,7.60
2017-10-15T08:31:02.136Z,7.57
2017-10-15T08:33:28.738Z,7.97
2017-10-15T08:35:55.370Z,14.20
2017-10-15T08:38:21.995Z,8.43
2017-10-15T08:40:48.632Z,9.65
2017-10-15T08:43:15.264Z,9.07
2017-10-15T08:45:41.876Z,9.60
2017-10-15T08:48:08.485Z,9.20
2017-10-15T08:50:35.112Z,9.50
2017-10-15T08:53:01.727Z,10.18
2017-10-15T08:55:28.355Z,9.50
2017-10-15T08:57:54.979Z,10.10
2017-10-15T09:00:21.615Z,10.80
2017-10-15T09:02:48.237Z,11.43
2017-10-15T09:05:14.866Z,10.18
2017-10-15T09:07:41.522Z,11.23
2017-10-15T09:10:08.134Z,10.55
2017-10-15T09:12:34.818Z,10.40
2017-10-15T09:15:01.443Z,11.88
2017-10-15T09:17:28.082Z,10.48
2017-10-15T09:19:54.799Z,10.65
2017-10-15T09:22:21.432Z,11.15
2017-10-15T09:24:48.046Z,10.43
2017-10-15T09:27:14.658Z,12.13
2017-10-15T09:29:41.287Z,10.93
2017-10-15T09:32:07.902Z,10.77
2017-10-15T09:34:34.608Z,11.80
2017-10-15T09:37:01.244Z,11.73
2017-10-15T09:39:27.850Z,14.65
2017-10-15T09:41:54.487Z,13.75
2017-10-15T09:44:21.116Z,14.13
2017-10-15T09:46:47.725Z,15.10
2017-10-15T09:49:14.334Z,14.32
2017-10-15T09:51:40.959Z,13.55
2017-10-15T09:54:07.569Z,13.23
2017-10-15T09:56:34.197Z,12.65
2017-10-15T09:59:00.819Z,15.15
2017-10-15T10:01:27.515Z,13.25
2017-10-15T10:03:54.259Z,11.75
2017-10-15T10:06:20.879Z,12.65
2017-10-15T10:08:47.523Z,17.42
2017-10-15T10:11:14.172Z,11.12
2017-10-15T10:13:40.779Z,12.13
2017-10-15T10:16:07.450Z,11.35
2017-10-15T10:18:34.089Z,10.00
2017-10-15T10:21:00.765Z,12.37
2017-10-15T10:23:27.433Z,10.70
2017-10-15T10:25:54.162Z,10.65
2017-10-15T10:28:20.796Z,12.15
2017-10-15T10:30:47.497Z,12.20
2017-10-15T10:33:14.106Z,11.77
2017-10-15T10:35:40.736Z,10.98
2017-10-15T10:38:07.382Z,11.15
2017-10-15T10:40:34.055Z,10.25
2017-10-15T10:43:00.724Z,9.98
2017-10-15T10:45:27.412Z,10.50
2017-10-15T10:47:54.106Z,9.70
2017-10-15T10:50:20.746Z,10.32
2017-10-15T10:52:47.372Z,10.25
2017-10-15T10:55:13.991Z,9.65
2017-10-15T10:57:40.628Z,9.02
2017-10-15T11:00:07.304Z,9.48
2017-10-15T11:02:33.913Z,8.90
2017-10-15T11:05:00.568Z,8.85
2017-10-15T11:07:27.178Z,8.80
2017-10-15T11:09:53.809Z,10.85
2017-10-15T11:12:20.479Z,9.90
2017-10-15T11:14:47.183Z,8.52
2017-10-15T11:17:13.797Z,8.05
2017-10-15T11:19:40.431Z,9.23
2017-10-15T11:22:07.061Z,7.15
2017-10-15T11:24:33.705Z,7.15
2017-10-15T11:27:00.328Z,8.65
2017-10-15T11:29:26.946Z,7.25
2017-10-15T11:31:53.572Z,6.20
2017-10-15T11:34:20.186Z,7.85
2017-10-15T11:36:46.799Z,9.02
2017-10-15T11:39:13.421Z,6.80
2017-10-15T11:41:40.031Z,6.47
2017-10-15T11:44:06.731Z,6.40
2017-10-15T11:46:33.368Z,6.25
2017-10-15T11:48:59.977Z,6.25
2017-10-15T11:51:26.593Z,6.60
2017-10-15T11:53:53.218Z,5.68
2017-10-15T11:56:19.830Z,4.60
2017-10-15T11:58:46.482Z,5.47
2017-10-15T12:01:13.076Z,4.35
2017-10-15T12:03:39.683Z,5.20
2017-10-15T12:06:06.314Z,12.30
2017-10-15T12:08:32.918Z,5.60
2017-10-15T12:10:59.527Z,4.68
2017-10-15T12:13:26.159Z,3.83
2017-10-15T12:15:52.780Z,3.97
2017-10-15T12:18:19.418Z,5.03
2017-10-15T12:20:46.064Z,3.55
2017-10-15T12:23:12.784Z,4.35
2017-10-15T12:25:39.490Z,4.05
2017-10-15T12:28:06.150Z,4.20
2017-10-15T12:30:32.959Z,5.93
2017-10-15T12:32:59.638Z,5.17
2017-10-15T12:35:26.291Z,4.60
2017-10-15T12:37:53.077Z,3.53
2017-10-15T12:40:19.713Z,4.20
2017-10-15T12:42:46.462Z,3.40
2017-10-15T12:45:13.230Z,2.87
2017-10-15T12:47:39.899Z,3.50
2017-10-15T12:50:06.573Z,3.40
2017-10-15T12:52:33.251Z,2.97
2017-10-15T12:54:59.916Z,3.30
2017-10-15T12:57:26.654Z,2.90
2017-10-15T12:59:53.402Z,2.90
2017-10-15T13:02:20.034Z,2.80
2017-10-15T13:04:46.642Z,4.60
2017-10-15T13:07:13.290Z,2.43
2017-10-15T13:09:40.129Z,2.27
2017-10-15T13:12:06.825Z,2.33
2017-10-15T13:14:33.546Z,2.40
2017-10-15T13:17:00.391Z,2.57
2017-10-15T13:19:27.460Z,2.50
2017-10-15T13:21:54.127Z,2.73
2017-10-15T13:24:20.808Z,2.23
2017-10-15T13:26:48.400Z,7.83
2017-10-15T13:29:15.164Z,2.97
2017-10-15T13:31:41.783Z,3.20
2017-10-15T13:34:08.378Z,2.90
2017-10-15T13:36:34.983Z,2.63
2017-10-15T13:39:01.611Z,2.63
2017-10-15T13:41:28.215Z,2.93
2017-10-15T13:43:54.957Z,6.60
2017-10-15T13:46:21.796Z,3.73
2017-10-15T13:48:48.538Z,7.13
2017-10-15T13:51:15.343Z,3.10
2017-10-15T13:53:42.120Z,4.40
2017-10-15T13:56:08.888Z,7.57
2017-10-15T13:58:35.624Z,3.63
2017-10-15T14:01:02.321Z,4.43
2017-10-15T14:03:29.161Z,3.30
2017-10-15T14:05:55.979Z,2.70
2017-10-15T14:08:22.692Z,3.30
2017-10-15T14:10:49.412Z,2.97
2017-10-15T14:13:16.092Z,2.87
2017-10-15T14:15:42.775Z,3.57
2017-10-15T14:18:09.514Z,2.43
2017-10-15T14:20:36.273Z,2.50
2017-10-15T14:23:02.967Z,2.53
2017-10-15T14:25:29.797Z,2.75
2017-10-15T14:27:56.473Z,3.17
2017-10-15T14:30:23.142Z,2.95
2017-10-15T14:32:49.816Z,3.07
2017-10-15T14:35:16.519Z,3.75
2017-10-15T14:37:43.162Z,3.40
2017-10-15T14:40:09.997Z,2.63
2017-10-15T14:42:36.738Z,2.80
2017-10-15T14:45:03.376Z,3.90
2017-10-15T14:47:30.050Z,5.13
2017-10-15T14:49:56.799Z,2.43
2017-10-15T14:52:23.498Z,2.70
2017-10-15T14:54:50.285Z,2.87
2017-10-15T14:57:16.939Z,2.30
2017-10-15T14:59:43.610Z,2.63
2017-10-15T15:02:10.292Z,2.93
2017-10-15T15:04:37.040Z,3.00
2017-10-15T15:07:03.885Z,2.40
2017-10-15T15:09:30.608Z,2.70
2017-10-15T15:11:57.245Z,3.17
2017-10-15T15:14:23.946Z,2.60
2017-10-15T15:16:50.600Z,2.40
2017-10-15T15:19:17.380Z,3.33
2017-10-15T15:21:44.127Z,3.50
2017-10-15T15:24:10.966Z,3.83
2017-10-15T15:26:37.706Z,3.20
2017-10-15T15:29:04.411Z,3.40
2017-10-15T15:31:31.191Z,3.30
2017-10-15T15:33:57.930Z,3.43
2017-10-15T15:36:24.603Z,2.33
2017-10-15T15:38:51.413Z,3.63
2017-10-15T15:41:18.159Z,2.70
2017-10-15T15:43:44.999Z,2.40
2017-10-15T15:46:11.675Z,3.37
2017-10-15T15:48:38.482Z,3.20
2017-10-15T15:51:05.203Z,3.90
2017-10-15T15:53:31.965Z,3.07
2017-10-15T15:55:58.782Z,2.57
2017-10-15T15:58:25.633Z,2.80
2017-10-15T16:00:52.267Z,3.30
2017-10-15T16:03:19.034Z,3.50
2017-10-15T16:05:45.654Z,3.47
2017-10-15T16:08:12.430Z,4.60
2017-10-15T16:10:39.171Z,3.80
2017-10-15T16:13:05.999Z,5.72
2017-10-15T16:15:32.845Z,7.28
2017-10-15T16:18:06.653Z,7.35
2017-10-15T16:20:33.597Z,7.28
2017-10-15T16:23:00.505Z,7.70
2017-10-15T16:25:29.795Z,7.60
2017-10-15T16:27:57.341Z,6.95
2017-10-15T16:30:37.764Z,7.12
2017-10-15T16:33:04.584Z,6.35
2017-10-15T16:35:35.853Z,8.50
2017-10-15T16:38:02.822Z,8.70
2017-10-15T16:40:29.922Z,11.05
2017-10-15T16:42:56.548Z,8.48
2017-10-15T16:45:23.175Z,7.97
2017-10-15T16:47:49.795Z,7.62
2017-10-15T16:50:16.433Z,7.87
2017-10-15T16:52:43.097Z,8.18
2017-10-15T16:55:10.911Z,8.85
2017-10-15T16:57:37.537Z,10.07
2017-10-15T17:00:04.154Z,9.98
2017-10-15T17:02:31.094Z,9.38
2017-10-15T17:04:57.874Z,12.82
2017-10-15T17:07:24.495Z,12.48
2017-10-15T17:09:51.119Z,12.55
2017-10-15T17:12:21.638Z,13.52
2017-10-15T17:14:48.502Z,10.60
2017-10-15T17:17:16.885Z,9.75
2017-10-15T17:19:43.694Z,10.20
2017-10-15T17:22:10.773Z,11.35
2017-10-15T17:24:38.434Z,12.05
2017-10-15T17:27:05.481Z,17.25
2017-10-15T17:29:32.111Z,10.52
2017-10-15T17:31:59.268Z,8.85
2017-10-15T17:34:26.550Z,8.48
2017-10-15T17:36:53.497Z,6.75
2017-10-15T17:39:20.546Z,7.50
2017-10-15T17:41:48.209Z,8.13
2017-10-15T17:44:14.949Z,6.43
2017-10-15T17:46:41.905Z,7.32
2017-10-15T17:49:08.740Z,8.85
2017-10-15T17:51:35.643Z,11.50
2017-10-15T17:54:02.484Z,11.85
2017-10-15T17:56:29.262Z,16.67
2017-10-15T17:58:56.266Z,15.20
2017-10-15T18:01:23.096Z,15.65
2017-10-15T18:03:49.803Z,13.55
2017-10-15T18:06:16.657Z,13.77
2017-10-15T18:08:43.299Z,11.50
2017-10-15T18:11:09.917Z,11.68
2017-10-15T18:13:36.528Z,12.55
2017-10-15T18:16:03.166Z,15.40
2017-10-15T18:18:29.811Z,12.90
2017-10-15T18:20:56.419Z,11.70
2017-10-15T18:23:23.060Z,10.15
2017-10-15T18:25:49.712Z,10.27
2017-10-15T18:28:16.342Z,11.63
2017-10-15T18:30:43.060Z,10.75
2017-10-15T18:33:09.772Z,10.32
2017-10-15T18:35:36.404Z,10.00
2017-10-15T18:38:03.264Z,9.80
2017-10-15T18:40:29.880Z,9.63
2017-10-15T18:42:56.514Z,10.23
2017-10-15T18:45:23.301Z,9.38
2017-10-15T18:47:50.558Z,8.77
2017-10-15T18:50:17.285Z,8.50
2017-10-15T18:52:44.024Z,8.35
2017-10-15T18:55:10.681Z,7.20
2017-10-15T18:57:37.435Z,7.55
2017-10-15T19:00:04.267Z,7.45
2017-10-15T19:02:30.945Z,7.80
2017-10-15T19:04:57.576Z,7.43
2017-10-15T19:07:24.182Z,7.72
2017-10-15T19:09:50.783Z,7.60
2017-10-15T19:12:17.417Z,10.15
2017-10-15T19:14:44.107Z,8.10
2017-10-15T19:17:10.834Z,9.18
2017-10-15T19:19:37.535Z,10.15
2017-10-15T19:22:04.238Z,10.45
2017-10-15T19:24:30.957Z,11.55
2017-10-15T19:26:57.673Z,10.57
2017-10-15T19:29:24.323Z,12.75
2017-10-15T19:31:51.157Z,11.07
2017-10-15T19:34:17.899Z,11.80
2017-10-15T19:36:44.632Z,10.65
2017-10-15T19:39:11.277Z,11.05
2017-10-15T19:41:38.224Z,10.52
2017-10-15T19:44:04.999Z,10.18
2017-10-15T19:46:31.750Z,13.75
2017-10-15T19:48:58.839Z,12.15
2017-10-15T19:51:25.684Z,11.05
2017-10-15T19:53:52.450Z,11.70
2017-10-15T19:56:19.099Z,12.00
2017-10-15T19:58:46.200Z,10.27
2017-10-15T20:01:12.845Z,12.15
2017-10-15T20:03:39.631Z,11.23
2017-10-15T20:06:06.289Z,11.23
2017-10-15T20:08:33.007Z,10.13
2017-10-15T20:10:59.835Z,11.25
2017-10-15T20:13:26.554Z,9.70
2017-10-15T20:15:53.487Z,9.60
2017-10-15T20:18:20.203Z,10.18
2017-10-15T20:20:46.923Z,9.80
2017-10-15T20:23:13.642Z,8.65
2017-10-15T20:25:40.343Z,9.82
2017-10-15T20:28:07.086Z,9.68
2017-10-15T20:30:38.884Z,8.85
2017-10-15T20:33:05.625Z,8.90
2017-10-15T20:35:32.325Z,8.38
2017-10-15T20:37:59.109Z,9.45
2017-10-15T20:40:25.806Z,9.40
2017-10-15T20:42:52.563Z,10.00
2017-10-15T20:45:19.322Z,9.35
2017-10-15T20:47:46.072Z,11.02
2017-10-15T20:50:12.816Z,12.93
2017-10-15T20:52:40.454Z,12.32
2017-10-15T20:55:07.365Z,11.68
2017-10-15T20:57:34.132Z,11.65
2017-10-15T21:00:00.832Z,13.00
2017-10-15T21:02:27.617Z,11.18
2017-10-15T21:04:54.389Z,11.73
2017-10-15T21:07:21.155Z,11.38
2017-10-15T21:09:47.974Z,10.50
2017-10-15T21:12:14.715Z,10.48
2017-10-15T21:14:41.494Z,10.07
2017-10-15T21:17:08.608Z,10.60
2017-10-15T21:19:35.373Z,9.68
2017-10-15T21:22:02.100Z,10.40
2017-10-15T21:24:28.877Z,11.23
2017-10-15T21:26:56.448Z,9.65
2017-10-15T21:29:23.250Z,9.65
2017-10-15T21:31:49.934Z,9.90
2017-10-15T21:34:16.617Z,10.20
2017-10-15T21:36:43.356Z,10.85
2017-10-15T21:39:10.153Z,9.63
2017-10-15T21:41:36.855Z,10.18
2017-10-15T21:44:03.599Z,10.23
2017-10-15T21:46:30.362Z,11.55
2017-10-15T21:48:57.056Z,11.48
2017-10-15T21:51:24.076Z,9.45
2017-10-15T21:53:51.056Z,10.90
2017-10-15T21:56:17.901Z,9.82
2017-10-15T21:58:44.648Z,9.65
2017-10-15T22:01:11.536Z,11.38
2017-10-15T22:03:38.157Z,10.43
2017-10-15T22:06:04.787Z,11.70
2017-10-15T22:08:31.513Z,11.00
2017-10-15T22:10:58.198Z,10.90
2017-10-15T22:13:24.951Z,11.15
2017-10-15T22:15:51.619Z,10.25
2017-10-15T22:18:24.204Z,10.27
2017-10-15T22:20:56.842Z,10.50
2017-10-15T22:23:23.462Z,11.57
2017-10-15T22:25:50.160Z,10.63
2017-10-15T22:28:16.787Z,10.32
2017-10-15T22:30:43.394Z,10.73
2017-10-15T22:33:10.006Z,10.20
2017-10-15T22:35:36.649Z,10.55
2017-10-15T22:38:03.251Z,9.77
2017-10-15T22:40:29.858Z,9.70
2017-10-15T22:42:56.482Z,9.63
2017-10-15T22:45:23.094Z,9.60
2017-10-15T22:47:49.708Z,10.73
2017-10-15T22:50:16.335Z,10.40
2017-10-15T22:52:42.941Z,9.77
2017-10-15T22:55:09.555Z,8.77
2017-10-15T22:57:36.178Z,9.07
2017-10-15T23:00:02.794Z,10.07
2017-10-15T23:02:29.409Z,9.40
2017-10-15T23:04:56.031Z,9.32
2017-10-15T23:07:22.709Z,10.35
2017-10-15T23:09:49.323Z,10.48
2017-10-15T23:12:15.943Z,8.70
2017-10-15T23:14:42.563Z,10.02
2017-10-15T23:17:09.696Z,9.15
2017-10-15T23:19:36.315Z,14.40
2017-10-15T23:22:02.930Z,17.33
2017-10-15T23:24:29.594Z,15.68
2017-10-15T23:26:56.230Z,16.37
2017-10-15T23:29:22.870Z,15.90
2017-10-15T23:31:49.613Z,14.32
2017-10-15T23:34:16.226Z,11.60
2017-10-15T23:36:42.839Z,12.65
2017-10-15T23:39:09.469Z,11.65
2017-10-15T23:41:36.113Z,10.48
2017-10-15T23:44:02.728Z,10.70
2017-10-15T23:46:29.359Z,10.50
2017-10-15T23:48:55.973Z,11.05
2017-10-15T23:51:22.591Z,11.20
2017-10-15T23:53:49.262Z,12.13
2017-10-15T23:56:15.875Z,11.38
2017-10-15T23:58:42.542Z,10.70
